Latest Weather Observations for Mangalore

IDV60801

Issued at 7:32 pm EST Sunday 20 August 2017 (issued every 30 minutes, with the page automatically refreshed every 10 minutes)

About weather observations | Map of weather stations | Latest weather observations for VIC | Other Formats
Station Details ID: 088109 Name: MANGALORE AIRPORT Lat: -36.89 Lon: 145.19 Height: 140.8 m
Data from the previous 72 hours. | See also: Recent months at Mangalore
Date/Time
EST
Temp
°C
App
Temp
°C
Dew
Point
°C
Rel
Hum
%
Delta-T
°C
Wind Press
QNH
hPa
Press
MSL
hPa
Rain since
9am
mm
Dir  Spd
km/h
Gust
km/h
Spd
kts
Gust
kts
20/07:30pm 4.6 1.7 2.6 87 0.8 NNW 7 7 4 4 1020.5 1020.7 0.2
20/07:00pm 5.2 2.5 2.6 83 1.1 NNW 6 7 3 4 1020.5 1020.7 0.2
20/06:30pm 6.5 3.7 3.1 79 1.4 NNW 7 9 4 5 1020.5 1020.7 0.2
20/06:00pm 7.2 3.9 2.7 73 1.9 NNW 9 11 5 6 1020.4 1020.6 0.2
20/05:30pm 8.9 6.0 2.5 64 2.7 NNW 7 9 4 5 1020.5 1020.7 0.0
20/05:00pm 9.5 6.2 2.6 62 2.9 NNW 9 11 5 6 1020.5 1020.7 0.0
20/04:30pm 9.8 6.2 2.9 62 3.0 NNW 11 13 6 7 1020.5 1020.7 0.0
20/04:00pm 11.2 7.4 1.7 52 4.0 N 11 15 6 8 1020.6 1020.8 0.0
20/03:30pm 11.7 9.2 1.4 49 4.4 SSW 4 9 2 5 1020.9 1021.1 0.0
20/03:00pm 11.9 9.5 2.1 51 4.2 SSW 4 9 2 5 1021.4 1021.6 0.0
20/02:30pm 11.1 7.6 1.1 50 4.2 SSW 9 11 5 6 1021.7 1021.9 0.0
20/02:00pm 10.7 7.1 0.7 50 4.1 SW 9 13 5 7 1022.3 1022.6 0.0
20/01:30pm 11.1 7.8 2.4 55 3.8 SSW 9 13 5 7 1023.0 1023.3 0.0
20/01:00pm 10.7 7.4 2.3 56 3.6 SSW 9 52 5 28 1023.6 1023.9 0.0
20/12:30pm 10.6 7.2 1.9 55 3.7 ESE 9 17 5 9 1023.9 1024.2 0.0
20/12:00pm 10.3 6.7 2.7 59 3.3 S 11 17 6 9 1024.7 1025.0 0.0
20/11:30am 9.9 6.8 3.6 65 2.8 S 9 13 5 7 1025.4 1025.7 0.0
20/11:00am 9.4 6.0 4.0 69 2.4 SSW 11 17 6 9 1025.8 1026.1 0.0
20/10:30am 8.3 5.2 3.8 73 2.0 SSW 9 15 5 8 1026.0 1026.3 0.0
20/10:00am 7.4 4.5 4.4 81 1.3 WSW 9 11 5 6 1026.6 1026.8 0.0
20/09:30am 5.4 2.2 3.3 86 0.9 WSW 9 11 5 6 1027.2 1027.4 0.0
20/09:00am 3.9 1.9 2.3 89 0.6 WSW 2 7 1 4 1027.4 1027.6 0.0
20/08:30am 1.5 -2.1 0.8 95 0.3 WSW 9 11 5 6 1027.7 1027.9 0.0
20/08:00am -0.1 -3.9 -0.7 96 0.2 SW 9 11 5 6 1027.3 1027.5 0.0
20/07:30am -1.1 -4.1 -1.5 97 0.1 SW 4 9 2 5 1027.1 1027.3 0.0
20/07:00am -1.6 -5.0 -2.2 96 0.1 SW 6 7 3 4 1026.9 1027.1 0.0
20/06:30am -1.5 -4.9 -2.1 96 0.1 SW 6 7 3 4 1026.9 1027.1 0.0
20/06:00am -1.1 -4.6 -1.5 97 0.1 SW 7 9 4 5 1026.8 1027.0 0.0
20/05:30am -1.6 -5.2 -2.2 96 0.1 S 7 9 4 5 1026.8 1027.0 0.0
20/05:00am -0.9 -4.8 -1.5 96 0.2 S 9 11 5 6 1026.8 1027.0 0.0
20/04:30am -0.3 -4.1 -0.7 97 0.1 S 9 11 5 6 1026.7 1026.9 0.0
20/04:00am -0.3 -3.6 -0.9 96 0.2 S 6 9 3 5 1026.5 1026.7 0.0
20/03:30am -0.4 -4.2 -1.1 95 0.2 S 9 11 5 6 1026.4 1026.6 0.0
20/03:00am -0.4 -4.2 -1.0 96 0.2 WSW 9 11 5 6 1026.4 1026.6 0.0
20/02:30am -1.1 -4.6 -1.7 96 0.2 SW 7 9 4 5 1026.2 1026.4 0.0
20/02:00am -1.5 -5.1 -2.2 95 0.2 SW 7 9 4 5 1026.5 1026.7 0.0
20/01:30am -0.8 -3.8 -1.5 95 0.2 SW 4 9 2 5 1027.0 1027.2 0.0
20/01:00am -0.8 -4.7 -1.5 95 0.2 SW 9 11 5 6 1027.2 1027.4 0.0
20/12:30am 0.0 -3.8 -0.7 95 0.3 SW 9 13 5 7 1026.9 1027.1 0.0
20/12:00am 0.0 -2.4 -0.6 96 0.2 SW 2 7 1 4 1027.4 1027.6 0.0
 
Date/Time
EST
Temp
°C
App
Temp
°C
Dew
Point
°C
Rel
Hum
%
Delta-T
°C
Wind Press
QNH
hPa
Press
MSL
hPa
Rain since
9am
mm
Dir  Spd
km/h
Gust
km/h
Spd
kts
Gust
kts
19/11:30pm -0.4 -4.2 -1.1 95 0.2 SW 9 11 5 6 1027.3 1027.5 0.0
19/11:00pm 0.6 -1.8 -0.3 94 0.3 SW 2 7 1 4 1027.6 1027.8 0.0
19/10:30pm 0.7 -2.5 -0.7 90 0.5 SW 6 9 3 5 1027.7 1027.9 0.0
19/10:00pm 2.4 -1.2 0.9 90 0.6 SW 9 11 5 6 1027.6 1027.8 0.0
19/09:30pm 1.9 0.0 0.4 90 0.6 CALM 0 0 0 0 1027.5 1027.7 0.0
19/09:00pm 1.9 -1.2 0.1 88 0.7 SW 6 7 3 4 1027.2 1027.4 0.0
19/08:30pm 2.9 -1.0 1.1 88 0.7 SW 11 13 6 7 1027.1 1027.3 0.0
19/08:00pm 2.5 0.7 0.9 89 0.6 CALM 0 0 0 0 1026.7 1026.9 0.0
19/07:30pm 5.2 2.1 1.5 77 1.5 SW 7 9 4 5 1026.7 1026.9 0.0
19/07:00pm 4.9 1.4 1.0 76 1.5 SW 9 11 5 6 1026.8 1027.0 0.0
19/06:30pm 7.0 3.3 2.1 71 2.0 SW 11 13 6 7 1026.7 1026.9 0.0
19/06:00pm 7.2 4.0 3.3 76 1.6 SW 9 15 5 8 1026.5 1026.7 0.0
19/05:30pm 8.3 5.5 3.4 71 2.1 SSE 7 9 4 5 1026.3 1026.5 0.0
19/05:00pm 9.0 4.7 3.4 68 2.4 SSE 15 19 8 10 1025.9 1026.2 0.0
19/04:30pm 10.6 5.7 4.1 64 2.9 SSW 19 26 10 14 1025.8 1026.1 0.0
19/04:00pm 11.0 5.7 3.1 58 3.4 SW 20 30 11 16 1025.5 1025.8 0.0
19/03:30pm 10.4 5.5 2.3 57 3.5 SSW 17 26 9 14 1025.5 1025.8 0.0
19/03:00pm 10.1 4.8 1.7 56 3.5 SSW 19 24 10 13 1025.6 1025.9 0.0
19/02:30pm 9.7 3.6 3.0 63 2.9 SSE 24 32 13 17 1025.7 1026.0 0.0
19/02:00pm 9.8 4.9 4.2 68 2.5 S 19 30 10 16 1025.7 1026.0 0.0
19/01:30pm 9.4 5.2 3.8 68 2.5 S 15 22 8 12 1025.7 1026.0 0.0
19/01:00pm 9.7 4.5 2.6 61 3.0 S 19 28 10 15 1025.7 1026.0 0.0
19/12:30pm 9.2 4.3 2.3 62 2.9 S 17 24 9 13 1025.7 1026.0 0.0
19/12:00pm 9.0 4.5 2.3 63 2.8 SSW 15 22 8 12 1025.7 1026.0 0.0
19/11:30am 9.3 4.1 3.3 66 2.6 S 20 30 11 16 1025.9 1026.2 0.0
19/11:00am 8.8 3.9 4.2 73 2.0 SSW 19 28 10 15 1026.2 1026.4 0.0
19/10:30am 7.9 2.8 2.8 70 2.2 SSW 19 26 10 14 1025.9 1026.2 0.0
19/10:00am 7.6 3.0 3.5 75 1.7 SSW 17 24 9 13 1025.7 1026.0 0.0
19/09:30am 7.2 2.0 3.3 76 1.7 SSW 20 28 11 15 1025.7 1026.0 0.0
19/09:00am 6.6 2.2 2.7 76 1.6 SW 15 20 8 11 1025.2 1025.5 0.2
19/08:30am 6.1 2.1 3.1 81 1.3 SW 13 20 7 11 1024.8 1025.1 0.2
19/08:00am 5.6 0.9 2.9 83 1.1 SSW 17 24 9 13 1024.3 1024.6 0.2
19/07:30am 3.5 -0.6 2.2 91 0.5 SW 13 15 7 8 1023.8 1024.1 0.2
19/07:00am 2.6 -1.2 1.9 95 0.3 W 11 15 6 8 1023.4 1023.7 0.2
19/06:30am 2.6 -0.4 1.7 94 0.4 SW 7 9 4 5 1023.1 1023.4 0.2
19/06:00am 2.4 -0.6 0.8 89 0.6 SW 6 9 3 5 1022.6 1022.9 0.2
19/05:30am 3.8 0.4 2.0 88 0.7 SW 9 13 5 7 1022.2 1022.5 0.2
19/05:00am 4.0 0.7 2.4 89 0.6 WSW 9 11 5 6 1021.7 1021.9 0.2
19/04:30am 4.5 0.4 2.5 87 0.8 SW 13 17 7 9 1021.5 1021.7 0.2
19/04:00am 4.8 1.2 2.7 86 0.9 SSW 11 20 6 11 1021.2 1021.4 0.2
19/03:30am 5.3 0.9 2.8 84 1.0 SW 15 22 8 12 1021.0 1021.2 0.2
19/03:00am 5.3 1.3 2.8 84 1.0 SW 13 17 7 9 1021.0 1021.2 0.2
19/02:30am 5.9 0.7 2.7 80 1.3 SSW 19 24 10 13 1020.9 1021.1 0.2
19/02:00am 5.5 1.6 3.2 85 1.0 WSW 13 20 7 11 1020.9 1021.1 0.2
19/01:30am 5.7 2.5 3.0 83 1.1 SW 9 13 5 7 1020.8 1021.0 0.2
19/01:00am 5.8 1.5 3.0 82 1.2 SW 15 22 8 12 1020.7 1020.9 0.2
19/12:30am 4.3 0.2 2.3 87 0.8 WSW 13 15 7 8 1020.4 1020.6 0.2
19/12:00am 4.8 0.7 2.2 83 1.0 SW 13 17 7 9 1020.0 1020.2 0.2
 
Date/Time
EST
Temp
°C
App
Temp
°C
Dew
Point
°C
Rel
Hum
%
Delta-T
°C
Wind Press
QNH
hPa
Press
MSL
hPa
Rain since
9am
mm
Dir  Spd
km/h
Gust
km/h
Spd
kts
Gust
kts
18/11:30pm 5.3 1.2 2.3 81 1.2 SW 13 17 7 9 1020.0 1020.2 0.2
18/11:00pm 4.9 1.3 2.9 87 0.8 WSW 11 13 6 7 1019.9 1020.1 0.2
18/10:30pm 5.6 2.4 3.3 85 1.0 SW 9 9 5 5 1019.7 1019.9 0.2
18/10:00pm 5.7 3.1 3.0 83 1.1 SW 6 9 3 5 1019.6 1019.8 0.2
18/09:30pm 5.8 3.2 3.1 83 1.1 SW 6 9 3 5 1019.3 1019.5 0.2
18/09:00pm 6.3 3.2 3.5 82 1.2 SW 9 13 5 7 1019.0 1019.2 0.2
18/08:30pm 6.4 2.6 3.7 83 1.2 WSW 13 19 7 10 1018.4 1018.7 0.2
18/08:00pm 6.2 3.1 3.7 84 1.1 WSW 9 11 5 6 1018.2 1018.5 0.2
18/07:30pm 6.8 4.0 3.1 77 1.6 WSW 7 9 4 5 1018.0 1018.3 0.2
18/07:00pm 6.4 2.8 3.2 80 1.3 WSW 11 13 6 7 1017.4 1017.7 0.2
18/06:30pm 7.4 3.8 3.1 74 1.8 WSW 11 15 6 8 1017.0 1017.3 0.2
18/06:00pm 7.7 3.0 3.2 73 1.9 WSW 17 22 9 12 1016.2 1016.5 0.2
18/05:30pm 8.5 3.8 3.1 69 2.3 WSW 17 24 9 13 1016.0 1016.2 0.2
18/05:00pm 8.6 3.9 3.2 69 2.3 WSW 17 20 9 11 1015.5 1015.7 0.2
18/04:30pm 8.9 1.6 2.5 64 2.7 WSW 30 46 16 25 1014.7 1014.9 0.2
18/04:04pm 9.2 2.3 2.5 63 2.9 WSW 28 56 15 30 1014.3 1014.5 0.2
18/04:00pm 9.2 2.5 3.6 68 2.4 WSW 28 43 15 23 1014.1 1014.3 0.2
18/03:30pm 9.8 5.0 4.6 70 2.3 SSW 19 30 10 16 1013.7 1013.9 0.2
18/03:00pm 9.0 5.3 6.1 82 1.3 SW 15 20 8 11 1013.2 1013.4 0.2
18/02:56pm 8.7 4.5 5.8 82 1.3 SW 17 26 9 14 1013.2 1013.4 0.2
18/02:37pm 7.6 2.2 4.7 82 1.3 SSW 22 43 12 23 1013.2 1013.4 0.0
18/02:30pm 8.1 1.5 4.1 76 1.8 SSW 28 44 15 24 1012.8 1013.0 0.0
18/02:14pm 11.4 4.2 3.2 57 3.6 W 30 46 16 25 1012.1 1012.3 0.0
18/02:00pm 10.9 5.2 4.8 66 2.8 WSW 24 35 13 19 1012.2 1012.4 0.0
18/01:30pm 10.9 3.6 2.7 57 3.6 SW 30 41 16 22 1012.0 1012.2 0.0
18/01:00pm 10.7 4.9 4.2 64 2.9 W 24 32 13 17 1011.7 1011.9 0.0
18/12:30pm 9.9 2.7 4.9 71 2.3 W 32 43 17 23 1011.9 1012.1 0.0
18/12:03pm 9.3 2.5 3.3 66 2.6 WSW 28 48 15 26 1011.8 1012.0 0.0
18/12:00pm 9.4 3.9 3.8 68 2.5 WSW 22 41 12 22 1011.8 1012.0 0.0
18/11:30am 10.1 5.0 3.2 62 3.0 W 19 26 10 14 1012.0 1012.2 0.0
18/11:00am 10.1 5.3 4.7 69 2.4 WNW 19 28 10 15 1012.0 1012.2 0.0
18/10:30am 8.6 3.7 4.2 74 1.9 WNW 19 24 10 13 1012.0 1012.2 0.0
18/10:00am 8.7 4.6 4.5 75 1.9 WNW 15 19 8 10 1011.7 1011.9 0.0
18/09:30am 8.0 3.5 4.0 76 1.7 W 17 20 9 11 1011.6 1011.8 0.0
18/09:00am 7.4 3.3 4.2 80 1.4 WNW 15 20 8 11 1011.2 1011.5 2.0
18/08:30am 7.1 2.6 4.1 81 1.3 WNW 17 22 9 12 1010.7 1011.0 2.0
18/08:00am 6.8 2.6 3.9 82 1.3 NW 15 19 8 10 1010.3 1010.6 2.0
18/07:30am 6.7 2.9 3.9 82 1.2 WNW 13 20 7 11 1009.9 1010.1 2.0
18/07:00am 6.7 3.3 3.9 82 1.2 NW 11 15 6 8 1009.3 1009.5 2.0
18/06:30am 6.7 4.0 3.5 80 1.4 WSW 7 11 4 6 1008.8 1009.0 2.0
18/06:00am 6.7 3.2 3.5 80 1.4 WNW 11 15 6 8 1008.5 1008.7 2.0
18/05:30am 6.6 2.7 3.6 81 1.3 WNW 13 19 7 10 1008.1 1008.3 2.0
18/05:00am 6.5 1.9 3.7 82 1.2 NW 17 22 9 12 1007.6 1007.8 2.0
18/04:30am 6.4 3.0 3.9 84 1.1 NW 11 15 6 8 1007.4 1007.6 2.0
18/04:00am 6.1 3.4 3.8 85 1.0 NNW 7 13 4 7 1007.2 1007.4 2.0
18/03:30am 5.9 2.8 3.4 84 1.1 NW 9 17 5 9 1007.0 1007.2 2.0
18/03:00am 6.8 3.8 4.1 83 1.2 NW 9 17 5 9 1006.8 1007.0 2.0
18/02:30am 6.9 4.4 4.0 82 1.3 N 6 19 3 10 1007.0 1007.2 2.0
18/02:00am 6.6 4.1 4.6 87 0.9 NNE 7 9 4 5 1006.9 1007.1 2.0
18/01:30am 6.3 2.8 3.5 82 1.2 NW 11 22 6 12 1006.8 1007.0 2.0
18/01:00am 7.0 2.5 4.1 82 1.3 WNW 17 26 9 14 1006.6 1006.8 2.0
18/12:30am 7.1 3.0 4.4 83 1.2 WNW 15 22 8 12 1006.6 1006.8 2.0
18/12:00am 6.9 3.2 4.6 85 1.0 NW 13 20 7 11 1006.3 1006.5 2.0
 
Date/Time
EST
Temp
°C
App
Temp
°C
Dew
Point
°C
Rel
Hum
%
Delta-T
°C
Wind Press
QNH
hPa
Press
MSL
hPa
Rain since
9am
mm
Dir  Spd
km/h
Gust
km/h
Spd
kts
Gust
kts
17/11:30pm 6.9 3.6 4.6 85 1.0 NNW 11 15 6 8 1006.4 1006.6 2.0
17/11:00pm 7.3 3.6 4.4 82 1.3 WNW 13 19 7 10 1006.6 1006.8 2.0
17/10:30pm 6.9 3.2 4.7 86 1.0 NW 13 20 7 11 1006.5 1006.7 2.0
17/10:00pm 7.0 3.8 5.0 87 0.9 NW 11 22 6 12 1006.5 1006.7 2.0
17/09:30pm 7.7 4.2 5.3 85 1.1 NW 13 17 7 9 1006.4 1006.6 2.0
17/09:00pm 8.2 3.9 5.1 81 1.4 NW 17 22 9 12 1006.2 1006.4 2.0
17/08:30pm 8.5 2.8 4.7 77 1.7 WNW 24 32 13 17 1006.0 1006.2 2.0
17/08:00pm 8.4 2.2 4.4 76 1.8 WNW 26 35 14 19 1006.0 1006.2 2.0

Other Formats:

Comma delimited format used in spreadsheet applications
http://www.bom.gov.au/fwo/IDV60801/IDV60801.94874.axf

JavaScript Object Notation format (JSON) in row-major order
http://www.bom.gov.au/fwo/IDV60801/IDV60801.94874.json